createdAt,value
2022-07-31T00:00:23.575Z,1.80
2022-07-31T00:02:51.623Z,2.07
2022-07-31T00:05:19.479Z,1.60
2022-07-31T00:07:48.590Z,1.80
2022-07-31T00:10:16.772Z,1.93
2022-07-31T00:12:44.544Z,1.70
2022-07-31T00:15:13.598Z,2.03
2022-07-31T00:17:42.033Z,1.77
2022-07-31T00:20:13.368Z,1.93
2022-07-31T00:22:41.323Z,1.90
2022-07-31T00:25:12.478Z,1.80
2022-07-31T00:27:40.595Z,1.90
2022-07-31T00:30:09.728Z,1.77
2022-07-31T00:32:37.498Z,1.80
2022-07-31T00:35:05.808Z,2.40
2022-07-31T00:37:36.475Z,1.90
2022-07-31T00:40:06.198Z,1.80
2022-07-31T00:42:36.170Z,1.90
2022-07-31T00:45:04.775Z,2.27
2022-07-31T00:47:33.587Z,2.10
2022-07-31T00:50:01.649Z,2.10
2022-07-31T00:52:29.413Z,2.20
2022-07-31T00:54:57.298Z,2.17
2022-07-31T00:57:25.077Z,1.90
2022-07-31T00:59:54.291Z,2.10
2022-07-31T01:02:22.076Z,1.80
2022-07-31T01:04:49.850Z,1.80
2022-07-31T01:07:18.033Z,1.83
2022-07-31T01:09:49.854Z,1.77
2022-07-31T01:12:22.464Z,1.80
2022-07-31T01:14:58.033Z,2.00
2022-07-31T01:17:27.672Z,2.00
2022-07-31T01:19:55.684Z,1.60
2022-07-31T01:22:45.626Z,2.30
2022-07-31T01:25:23.300Z,2.00
2022-07-31T01:28:03.517Z,2.17
2022-07-31T01:30:36.615Z,1.80
2022-07-31T01:33:10.306Z,2.20
2022-07-31T01:35:43.523Z,2.03
2022-07-31T01:38:15.136Z,2.17
2022-07-31T01:40:45.358Z,2.20
2022-07-31T01:43:17.382Z,1.83
2022-07-31T01:45:51.233Z,2.20
2022-07-31T01:48:19.747Z,2.13
2022-07-31T01:50:49.646Z,2.10
2022-07-31T01:53:21.157Z,1.80
2022-07-31T01:56:02.408Z,2.30
2022-07-31T01:58:36.707Z,1.83
2022-07-31T02:01:08.921Z,1.77
2022-07-31T02:03:44.432Z,2.10
2022-07-31T02:06:15.898Z,2.10
2022-07-31T02:08:46.365Z,2.10
2022-07-31T02:11:16.780Z,2.30
2022-07-31T02:13:45.465Z,2.17
2022-07-31T02:16:15.947Z,1.73
2022-07-31T02:18:44.454Z,2.10
2022-07-31T02:21:12.290Z,2.17
2022-07-31T02:23:40.146Z,2.10
2022-07-31T02:26:08.694Z,2.07
2022-07-31T02:28:39.012Z,2.20
2022-07-31T02:31:11.635Z,2.17
2022-07-31T02:33:44.936Z,2.30
2022-07-31T02:36:14.911Z,2.07
2022-07-31T02:38:44.633Z,2.33
2022-07-31T02:41:14.097Z,2.23
2022-07-31T02:43:42.611Z,2.40
2022-07-31T02:46:11.605Z,2.27
2022-07-31T02:48:41.550Z,2.10
2022-07-31T02:51:09.825Z,2.60
2022-07-31T02:53:38.941Z,2.93
2022-07-31T02:56:09.302Z,2.40
2022-07-31T02:58:39.503Z,2.50
2022-07-31T03:01:07.652Z,2.30
2022-07-31T03:03:36.106Z,2.30
2022-07-31T03:06:05.609Z,2.30
2022-07-31T03:08:33.386Z,2.17
2022-07-31T03:11:01.391Z,2.00
2022-07-31T03:13:31.565Z,2.00
2022-07-31T03:15:59.852Z,2.20
2022-07-31T03:18:28.260Z,2.20
2022-07-31T03:20:57.345Z,2.00
2022-07-31T03:23:36.045Z,2.13
2022-07-31T03:26:04.445Z,1.90
2022-07-31T03:28:32.741Z,2.00
2022-07-31T03:31:00.638Z,1.97
2022-07-31T03:33:28.932Z,2.10
2022-07-31T03:35:57.982Z,1.90
2022-07-31T03:38:38.633Z,2.10
2022-07-31T03:41:10.390Z,2.50
2022-07-31T03:43:47.072Z,2.37
2022-07-31T03:46:18.187Z,2.40
2022-07-31T03:48:46.621Z,2.20
2022-07-31T03:51:15.377Z,2.67
2022-07-31T03:53:45.217Z,2.00
2022-07-31T03:56:14.114Z,2.20
2022-07-31T03:58:42.056Z,2.27
2022-07-31T04:01:16.594Z,2.10
2022-07-31T04:03:48.552Z,1.90
2022-07-31T04:06:16.312Z,1.83
2022-07-31T04:08:45.473Z,2.57
2022-07-31T04:11:13.925Z,1.90
2022-07-31T04:13:41.725Z,1.93
2022-07-31T04:16:09.554Z,2.00
2022-07-31T04:18:37.316Z,2.23
2022-07-31T04:21:05.264Z,2.03
2022-07-31T04:23:33.061Z,2.20
2022-07-31T04:26:02.209Z,2.23
2022-07-31T04:28:30.029Z,2.20
2022-07-31T04:30:57.987Z,2.20
2022-07-31T04:33:25.761Z,2.40
2022-07-31T04:35:54.217Z,2.47
2022-07-31T04:38:21.988Z,2.20
2022-07-31T04:40:49.910Z,1.90
2022-07-31T04:43:19.574Z,2.43
2022-07-31T04:45:47.379Z,2.23
2022-07-31T04:48:15.143Z,2.37
2022-07-31T04:50:42.904Z,1.90
2022-07-31T04:53:10.639Z,1.90
2022-07-31T04:55:38.447Z,2.30
2022-07-31T04:58:06.219Z,2.37
2022-07-31T05:00:35.461Z,2.03
2022-07-31T05:03:03.233Z,1.90
2022-07-31T05:05:31.072Z,2.13
2022-07-31T05:07:58.808Z,2.20
2022-07-31T05:10:44.098Z,2.17
2022-07-31T05:13:11.832Z,2.20
2022-07-31T05:15:40.947Z,2.40
2022-07-31T05:18:08.760Z,1.87
2022-07-31T05:20:36.562Z,2.10
2022-07-31T05:23:06.699Z,2.00
2022-07-31T05:25:34.735Z,2.10
2022-07-31T05:28:02.545Z,2.00
2022-07-31T05:30:30.893Z,2.10
2022-07-31T05:33:00.105Z,2.20
2022-07-31T05:35:27.967Z,2.10
2022-07-31T05:37:55.782Z,2.20
2022-07-31T05:40:23.572Z,1.83
2022-07-31T05:42:51.310Z,2.10
2022-07-31T05:45:19.253Z,1.80
2022-07-31T05:47:47.042Z,1.90
2022-07-31T05:50:16.795Z,1.90
2022-07-31T05:52:44.566Z,1.80
2022-07-31T05:55:12.381Z,1.70
2022-07-31T05:57:40.223Z,2.10
2022-07-31T06:00:09.754Z,2.63
2022-07-31T06:02:39.456Z,2.10
2022-07-31T06:05:07.556Z,2.10
2022-07-31T06:07:36.707Z,2.23
2022-07-31T06:10:05.415Z,3.40
2022-07-31T06:12:33.911Z,2.63
2022-07-31T06:15:01.826Z,2.37
2022-07-31T06:17:43.875Z,2.10
2022-07-31T06:20:14.092Z,2.80
2022-07-31T06:22:44.900Z,2.03
2022-07-31T06:25:13.642Z,1.90
2022-07-31T06:27:42.683Z,2.30
2022-07-31T06:30:11.990Z,1.93
2022-07-31T06:32:40.040Z,2.13
2022-07-31T06:35:08.679Z,2.00
2022-07-31T06:37:36.476Z,2.00
2022-07-31T06:40:06.833Z,2.00
2022-07-31T06:42:34.728Z,7.63
2022-07-31T06:45:02.549Z,3.13
2022-07-31T06:47:30.366Z,4.97
2022-07-31T06:49:58.289Z,2.20
2022-07-31T06:52:26.516Z,1.90
2022-07-31T06:54:54.326Z,2.37
2022-07-31T06:57:23.602Z,1.90
2022-07-31T06:59:51.454Z,15.73
2022-07-31T07:02:19.245Z,3.77
2022-07-31T07:05:05.401Z,2.03
2022-07-31T07:07:36.365Z,2.20
2022-07-31T07:10:05.041Z,3.43
2022-07-31T07:12:34.174Z,3.53
2022-07-31T07:15:03.517Z,3.60
2022-07-31T07:17:31.638Z,3.20
2022-07-31T07:19:59.387Z,3.00
2022-07-31T07:22:30.030Z,2.97
2022-07-31T07:25:00.916Z,3.77
2022-07-31T07:27:28.859Z,5.77
2022-07-31T07:29:58.558Z,5.83
2022-07-31T07:32:26.323Z,6.53
2022-07-31T07:34:59.611Z,10.43
2022-07-31T07:37:28.571Z,10.00
2022-07-31T07:39:56.632Z,45.67
2022-07-31T07:42:24.439Z,9.20
2022-07-31T07:44:52.212Z,7.17
2022-07-31T07:47:21.375Z,7.07
2022-07-31T07:49:49.208Z,7.53
2022-07-31T07:52:17.039Z,7.93
2022-07-31T07:54:44.868Z,8.87
2022-07-31T07:57:16.073Z,8.37
2022-07-31T07:59:44.335Z,8.10
2022-07-31T08:02:13.598Z,10.20
2022-07-31T08:04:47.296Z,9.83
2022-07-31T08:07:15.489Z,7.87
2022-07-31T08:09:43.307Z,7.70
2022-07-31T08:12:11.088Z,8.77
2022-07-31T08:14:38.853Z,8.90
2022-07-31T08:17:06.672Z,7.90
2022-07-31T08:19:34.471Z,7.90
2022-07-31T08:22:03.795Z,7.43
2022-07-31T08:24:31.762Z,8.13
2022-07-31T08:27:16.916Z,9.27
2022-07-31T08:29:49.391Z,10.97
2022-07-31T08:32:18.129Z,9.90
2022-07-31T08:34:46.383Z,8.47
2022-07-31T08:38:01.430Z,7.87
2022-07-31T08:40:07.996Z,8.43
2022-07-31T08:42:36.706Z,7.90
2022-07-31T08:45:07.613Z,7.90
2022-07-31T08:47:37.024Z,7.93
2022-07-31T08:50:06.366Z,7.57
2022-07-31T08:52:38.146Z,7.97
2022-07-31T08:55:09.445Z,7.87
2022-07-31T08:57:37.526Z,8.13
2022-07-31T09:00:07.339Z,7.57
2022-07-31T09:02:35.267Z,8.37
2022-07-31T09:05:03.077Z,8.87
2022-07-31T09:07:30.929Z,7.43
2022-07-31T09:10:00.825Z,7.87
2022-07-31T09:12:33.666Z,7.20
2022-07-31T09:15:02.631Z,7.77
2022-07-31T09:17:35.701Z,7.03
2022-07-31T09:20:04.668Z,6.40
2022-07-31T09:22:33.862Z,6.07
2022-07-31T09:25:13.068Z,7.27
2022-07-31T09:27:41.486Z,6.10
2022-07-31T09:30:10.469Z,5.70
2022-07-31T09:32:38.548Z,6.53
2022-07-31T09:35:12.220Z,6.30
2022-07-31T09:37:40.758Z,6.77
2022-07-31T09:40:11.611Z,7.23
2022-07-31T09:42:46.008Z,6.70
2022-07-31T09:45:20.945Z,6.60
2022-07-31T09:47:49.311Z,6.53
2022-07-31T09:50:25.169Z,6.90
2022-07-31T09:52:59.832Z,6.63
2022-07-31T09:55:29.512Z,15.83
2022-07-31T09:57:59.651Z,11.17
2022-07-31T10:00:28.912Z,6.43
2022-07-31T10:02:58.233Z,6.63
2022-07-31T10:05:27.601Z,6.80
2022-07-31T10:08:00.174Z,7.47
2022-07-31T10:10:30.159Z,6.57
2022-07-31T10:13:03.043Z,7.27
2022-07-31T10:15:32.370Z,6.90
2022-07-31T10:18:02.160Z,6.10
2022-07-31T10:20:31.859Z,7.53
2022-07-31T10:23:04.893Z,6.67
2022-07-31T10:25:40.245Z,7.30
2022-07-31T10:28:10.328Z,7.17
2022-07-31T10:30:39.106Z,6.93
2022-07-31T10:33:27.992Z,6.80
2022-07-31T10:36:02.672Z,6.60
2022-07-31T10:38:38.525Z,6.80
2022-07-31T10:41:13.877Z,6.60
2022-07-31T10:43:47.237Z,6.30
2022-07-31T10:46:15.086Z,28.37
2022-07-31T10:48:53.004Z,8.93
2022-07-31T10:51:22.474Z,5.90
2022-07-31T10:53:57.767Z,5.17
2022-07-31T10:56:27.960Z,5.67
2022-07-31T10:58:58.039Z,5.50
2022-07-31T11:01:26.631Z,5.40
2022-07-31T11:04:00.666Z,5.40
2022-07-31T11:06:39.633Z,5.10
2022-07-31T11:09:07.504Z,5.30
2022-07-31T11:11:38.458Z,4.70
2022-07-31T11:14:06.289Z,5.50
2022-07-31T11:16:34.171Z,4.80
2022-07-31T11:19:03.793Z,4.43
2022-07-31T11:21:40.289Z,4.87
2022-07-31T11:24:16.372Z,4.20
2022-07-31T11:26:51.630Z,4.67
2022-07-31T11:30:00.627Z,4.33
2022-07-31T11:32:25.169Z,4.03
2022-07-31T11:34:55.821Z,4.20
2022-07-31T11:37:25.704Z,5.57
2022-07-31T11:39:54.829Z,5.00
2022-07-31T11:42:29.524Z,4.43
2022-07-31T11:45:10.734Z,4.43
2022-07-31T11:48:12.478Z,4.30
2022-07-31T11:50:30.866Z,4.03
2022-07-31T11:53:04.141Z,3.80
2022-07-31T11:55:32.228Z,3.80
2022-07-31T11:58:01.471Z,3.93
2022-07-31T12:00:30.097Z,3.47
2022-07-31T12:02:58.987Z,3.53
2022-07-31T12:05:37.973Z,3.10
2022-07-31T12:08:08.068Z,3.10
2022-07-31T12:10:36.413Z,3.07
2022-07-31T12:13:05.641Z,2.97
2022-07-31T12:15:33.485Z,2.90
2022-07-31T12:18:02.221Z,3.37
2022-07-31T12:20:35.998Z,3.13
2022-07-31T12:23:06.462Z,3.10
2022-07-31T12:25:45.733Z,2.70
2022-07-31T12:28:16.425Z,2.63
2022-07-31T12:30:44.801Z,2.70
2022-07-31T12:33:14.141Z,2.40
2022-07-31T12:35:55.899Z,3.00
2022-07-31T12:38:48.049Z,2.63
2022-07-31T12:41:14.230Z,2.80
2022-07-31T12:43:51.800Z,2.70
2022-07-31T12:46:22.404Z,2.93
2022-07-31T12:48:50.564Z,2.50
2022-07-31T12:51:20.186Z,2.47
2022-07-31T12:54:09.085Z,2.70
2022-07-31T12:56:37.259Z,3.50
2022-07-31T12:59:07.339Z,2.83
2022-07-31T13:01:35.272Z,2.60
2022-07-31T13:04:03.545Z,2.77
2022-07-31T13:06:31.975Z,2.63
2022-07-31T13:08:59.783Z,3.00
2022-07-31T13:11:30.378Z,2.77
2022-07-31T13:14:16.269Z,2.60
2022-07-31T13:16:44.235Z,2.77
2022-07-31T13:19:12.909Z,2.87
2022-07-31T13:21:49.274Z,3.40
2022-07-31T13:24:18.906Z,3.07
2022-07-31T13:26:46.810Z,2.97
2022-07-31T13:29:16.258Z,2.93
2022-07-31T13:31:45.210Z,3.10
2022-07-31T13:34:13.140Z,5.10
2022-07-31T13:36:40.934Z,14.43
2022-07-31T13:39:09.186Z,3.53
2022-07-31T13:41:39.211Z,3.10
2022-07-31T13:44:07.635Z,3.10
2022-07-31T13:46:37.152Z,3.23
2022-07-31T13:49:08.677Z,3.53
2022-07-31T13:51:37.264Z,3.40
2022-07-31T13:54:05.353Z,4.40
2022-07-31T13:56:39.290Z,3.30
2022-07-31T13:59:11.487Z,3.70
2022-07-31T14:02:03.325Z,3.37
2022-07-31T14:04:32.137Z,3.93
2022-07-31T14:07:04.030Z,3.97
2022-07-31T14:09:34.141Z,3.50
2022-07-31T14:12:04.599Z,3.30
2022-07-31T14:14:33.528Z,3.50
2022-07-31T14:17:03.103Z,3.73
2022-07-31T14:19:43.939Z,3.87
2022-07-31T14:22:13.142Z,3.20
2022-07-31T14:24:41.352Z,3.43
2022-07-31T14:27:10.936Z,3.60
2022-07-31T14:29:38.745Z,3.47
2022-07-31T14:32:08.912Z,3.40
2022-07-31T14:34:36.868Z,4.00
2022-07-31T14:37:05.398Z,3.33
2022-07-31T14:39:33.389Z,3.27
2022-07-31T14:42:01.245Z,3.10
2022-07-31T14:44:29.242Z,3.00
2022-07-31T14:46:57.151Z,2.93
2022-07-31T14:49:26.482Z,2.87
2022-07-31T14:52:14.175Z,3.10
2022-07-31T14:54:41.932Z,3.07
2022-07-31T14:57:09.793Z,2.60
2022-07-31T14:59:37.591Z,2.83
2022-07-31T15:02:05.985Z,2.70
2022-07-31T15:04:35.132Z,2.93
2022-07-31T15:07:32.438Z,3.27
2022-07-31T15:09:51.442Z,3.23
2022-07-31T15:12:19.819Z,2.50
2022-07-31T15:14:48.160Z,2.47
2022-07-31T15:17:15.984Z,8.07
2022-07-31T15:19:45.134Z,3.20
2022-07-31T15:22:17.039Z,2.77
2022-07-31T15:24:48.933Z,3.10
2022-07-31T15:27:18.086Z,2.90
2022-07-31T15:30:06.028Z,2.80
2022-07-31T15:32:33.790Z,3.20
2022-07-31T15:35:03.387Z,3.20
2022-07-31T15:37:31.221Z,3.23
2022-07-31T15:40:03.902Z,3.20
2022-07-31T15:42:32.211Z,3.70
2022-07-31T15:45:00.225Z,2.87
2022-07-31T15:47:27.977Z,3.83
2022-07-31T15:49:55.935Z,3.47
2022-07-31T15:52:25.332Z,3.60
2022-07-31T15:54:53.398Z,3.77
2022-07-31T15:57:21.424Z,3.37
2022-07-31T15:59:49.911Z,3.40
2022-07-31T16:02:18.326Z,3.17
2022-07-31T16:04:52.569Z,3.60
2022-07-31T16:08:29.263Z,3.30
2022-07-31T16:10:16.773Z,3.20
2022-07-31T16:12:45.593Z,3.60
2022-07-31T16:15:13.676Z,3.90
2022-07-31T16:17:41.541Z,3.10
2022-07-31T16:20:11.956Z,3.30
2022-07-31T16:22:41.377Z,3.00
2022-07-31T16:25:11.925Z,3.17
2022-07-31T16:27:40.621Z,2.93
2022-07-31T16:30:09.091Z,3.40
2022-07-31T16:32:36.912Z,3.47
2022-07-31T16:35:07.106Z,2.90
2022-07-31T16:37:49.889Z,2.90
2022-07-31T16:40:26.876Z,2.93
2022-07-31T16:42:57.560Z,2.57
2022-07-31T16:45:25.365Z,2.77
2022-07-31T16:47:53.170Z,3.00
2022-07-31T16:50:21.033Z,2.87
2022-07-31T16:52:52.717Z,2.80
2022-07-31T16:55:59.486Z,2.70
2022-07-31T16:58:13.710Z,2.60
2022-07-31T17:00:41.610Z,2.93
2022-07-31T17:03:58.622Z,3.27
2022-07-31T17:05:57.515Z,2.83
2022-07-31T17:08:25.340Z,2.83
2022-07-31T17:10:55.010Z,3.00
2022-07-31T17:13:23.507Z,2.90
2022-07-31T17:15:51.465Z,3.20
2022-07-31T17:18:24.851Z,3.47
2022-07-31T17:20:53.206Z,3.10
2022-07-31T17:23:43.378Z,3.40
2022-07-31T17:26:21.233Z,3.23
2022-07-31T17:28:50.729Z,4.37
2022-07-31T17:31:19.211Z,13.60
2022-07-31T17:33:59.227Z,13.63
2022-07-31T17:36:29.809Z,4.37
2022-07-31T17:38:58.032Z,3.30
2022-07-31T17:41:27.312Z,3.07
2022-07-31T17:43:55.279Z,3.17
2022-07-31T17:46:34.602Z,2.90
2022-07-31T17:49:05.826Z,3.07
2022-07-31T17:51:34.226Z,3.10
2022-07-31T17:54:02.084Z,3.40
2022-07-31T17:56:31.529Z,3.63
2022-07-31T17:59:04.516Z,3.50
2022-07-31T18:01:34.325Z,3.50
2022-07-31T18:04:02.552Z,3.53
2022-07-31T18:06:30.697Z,3.57
2022-07-31T18:09:00.124Z,3.77
2022-07-31T18:11:28.194Z,4.10
2022-07-31T18:14:01.110Z,3.93
2022-07-31T18:16:31.764Z,4.23
2022-07-31T18:18:59.782Z,4.73
2022-07-31T18:21:27.791Z,4.60
2022-07-31T18:23:55.592Z,4.30
2022-07-31T18:26:24.102Z,4.23
2022-07-31T18:28:51.932Z,30.00
2022-07-31T18:31:34.364Z,4.90
2022-07-31T18:34:03.933Z,6.80
2022-07-31T18:36:31.977Z,5.10
2022-07-31T18:39:00.033Z,4.70
2022-07-31T18:41:28.312Z,5.80
2022-07-31T18:43:56.650Z,7.20
2022-07-31T18:46:25.925Z,5.27
2022-07-31T18:48:55.818Z,4.93
2022-07-31T18:51:24.517Z,4.80
2022-07-31T18:53:54.471Z,5.53
2022-07-31T18:56:23.306Z,5.53
2022-07-31T18:58:51.347Z,6.37
2022-07-31T19:01:19.459Z,6.50
2022-07-31T19:03:48.741Z,7.30
2022-07-31T19:06:16.659Z,6.63
2022-07-31T19:08:44.594Z,8.10
2022-07-31T19:11:12.942Z,8.20
2022-07-31T19:13:40.685Z,8.60
2022-07-31T19:16:08.500Z,8.23
2022-07-31T19:18:37.668Z,9.00
2022-07-31T19:21:22.849Z,8.90
2022-07-31T19:23:55.383Z,9.30
2022-07-31T19:26:23.203Z,9.10
2022-07-31T19:28:51.340Z,9.90
2022-07-31T19:31:19.177Z,10.93
2022-07-31T19:33:47.250Z,9.77
2022-07-31T19:36:16.407Z,11.03
2022-07-31T19:38:45.165Z,11.37
2022-07-31T19:41:14.656Z,11.40
2022-07-31T19:43:44.597Z,10.33
2022-07-31T19:46:12.992Z,10.83
2022-07-31T19:48:41.928Z,10.83
2022-07-31T19:51:09.885Z,11.50
2022-07-31T19:53:39.342Z,10.67
2022-07-31T19:56:07.303Z,11.60
2022-07-31T19:58:35.708Z,13.63
2022-07-31T20:01:03.885Z,15.10
2022-07-31T20:03:31.949Z,15.97
2022-07-31T20:05:59.885Z,17.03
2022-07-31T20:08:32.819Z,16.10
2022-07-31T20:11:03.905Z,17.13
2022-07-31T20:13:32.943Z,16.60
2022-07-31T20:16:01.222Z,18.77
2022-07-31T20:18:29.614Z,17.87
2022-07-31T20:20:59.626Z,17.70
2022-07-31T20:23:27.739Z,19.43
2022-07-31T20:25:55.923Z,21.70
2022-07-31T20:28:25.095Z,21.60
2022-07-31T20:30:52.933Z,20.27
2022-07-31T20:33:21.089Z,21.73
2022-07-31T20:35:50.302Z,20.67
2022-07-31T20:38:18.731Z,22.00
2022-07-31T20:40:54.016Z,23.17
2022-07-31T20:43:23.289Z,23.80
2022-07-31T20:45:52.899Z,25.10
2022-07-31T20:48:24.148Z,24.27
2022-07-31T20:50:52.720Z,23.87
2022-07-31T20:53:21.571Z,23.27
2022-07-31T20:55:50.308Z,23.63
2022-07-31T20:58:18.691Z,23.97
2022-07-31T21:00:47.528Z,24.10
2022-07-31T21:03:17.508Z,22.97
2022-07-31T21:05:45.829Z,23.30
2022-07-31T21:08:13.821Z,22.33
2022-07-31T21:10:42.057Z,23.23
2022-07-31T21:13:10.248Z,26.27
2022-07-31T21:15:41.871Z,25.87
2022-07-31T21:18:12.519Z,24.43
2022-07-31T21:20:52.480Z,25.13
2022-07-31T21:23:22.565Z,28.17
2022-07-31T21:25:51.434Z,24.97
2022-07-31T21:28:19.987Z,26.77
2022-07-31T21:30:48.709Z,26.37
2022-07-31T21:33:18.161Z,25.20
2022-07-31T21:35:48.154Z,23.80
2022-07-31T21:38:16.778Z,25.10
2022-07-31T21:40:45.565Z,23.00
2022-07-31T21:43:16.005Z,21.40
2022-07-31T21:45:55.220Z,25.93
2022-07-31T21:48:25.596Z,25.90
2022-07-31T21:50:55.690Z,26.30
2022-07-31T21:53:24.076Z,26.20
2022-07-31T21:55:51.846Z,25.27
2022-07-31T21:58:19.864Z,23.43
2022-07-31T22:00:48.152Z,25.10
2022-07-31T22:03:16.010Z,23.20
2022-07-31T22:05:57.701Z,23.57
2022-07-31T22:08:26.881Z,23.77
2022-07-31T22:10:54.809Z,25.37
2022-07-31T22:13:22.629Z,23.10
2022-07-31T22:15:59.811Z,23.13
2022-07-31T22:18:28.801Z,20.73
2022-07-31T22:20:57.127Z,21.17
2022-07-31T22:23:27.393Z,20.93
2022-07-31T22:25:55.706Z,21.13
2022-07-31T22:28:24.965Z,20.33
2022-07-31T22:30:53.748Z,20.03
2022-07-31T22:33:21.938Z,21.53
2022-07-31T22:36:00.016Z,22.30
2022-07-31T22:38:31.618Z,21.53
2022-07-31T22:41:00.082Z,21.33
2022-07-31T22:44:09.863Z,20.90
2022-07-31T22:46:16.489Z,19.57
2022-07-31T22:48:46.371Z,19.87
2022-07-31T22:51:15.418Z,20.30
2022-07-31T22:53:45.547Z,20.93
2022-07-31T22:56:16.875Z,21.23
2022-07-31T22:58:44.732Z,19.77
2022-07-31T23:01:12.545Z,20.20
2022-07-31T23:03:40.364Z,20.10
2022-07-31T23:06:31.414Z,18.23
2022-07-31T23:08:57.796Z,19.63
2022-07-31T23:11:25.855Z,18.43
2022-07-31T23:13:53.916Z,17.73
2022-07-31T23:16:21.965Z,16.77
2022-07-31T23:18:50.350Z,17.00
2022-07-31T23:21:18.646Z,15.57
2022-07-31T23:23:49.056Z,14.27
2022-07-31T23:26:19.529Z,12.97
2022-07-31T23:28:48.022Z,12.00
2022-07-31T23:31:15.891Z,10.83
2022-07-31T23:33:44.157Z,9.17
2022-07-31T23:36:12.313Z,12.17
2022-07-31T23:38:40.567Z,12.30
2022-07-31T23:41:08.486Z,11.90
2022-07-31T23:43:36.945Z,11.87
2022-07-31T23:46:05.261Z,11.70
2022-07-31T23:48:33.267Z,12.27
2022-07-31T23:51:01.103Z,12.30
2022-07-31T23:53:28.910Z,11.50
2022-07-31T23:55:56.773Z,12.50
2022-07-31T23:58:24.560Z,12.53
